sensor_id;sensor_type;location;lat;lon;timestamp;temperature;humidity
74416;SHT31;62850;42.428;25.618;2022-11-14T00:00:42;9.48;79.27
74416;SHT31;62850;42.428;25.618;2022-11-14T00:03:09;9.41;79.37
74416;SHT31;62850;42.428;25.618;2022-11-14T00:05:40;9.34;79.78
74416;SHT31;62850;42.428;25.618;2022-11-14T00:08:13;9.26;79.84
74416;SHT31;62850;42.428;25.618;2022-11-14T00:10:39;9.34;79.75
74416;SHT31;62850;42.428;25.618;2022-11-14T00:13:04;9.32;79.73
74416;SHT31;62850;42.428;25.618;2022-11-14T00:15:30;9.38;79.57
74416;SHT31;62850;42.428;25.618;2022-11-14T00:17:55;9.40;79.42
74416;SHT31;62850;42.428;25.618;2022-11-14T00:20:21;9.27;79.60
74416;SHT31;62850;42.428;25.618;2022-11-14T00:22:46;9.24;79.79
74416;SHT31;62850;42.428;25.618;2022-11-14T00:25:12;9.16;79.74
74416;SHT31;62850;42.428;25.618;2022-11-14T00:27:37;9.10;80.14
74416;SHT31;62850;42.428;25.618;2022-11-14T00:30:03;8.93;80.62
74416;SHT31;62850;42.428;25.618;2022-11-14T00:32:30;8.96;80.45
74416;SHT31;62850;42.428;25.618;2022-11-14T00:34:55;8.97;80.21
74416;SHT31;62850;42.428;25.618;2022-11-14T00:37:21;8.91;80.24
74416;SHT31;62850;42.428;25.618;2022-11-14T00:39:46;8.80;80.78
74416;SHT31;62850;42.428;25.618;2022-11-14T00:42:12;8.73;81.04
74416;SHT31;62850;42.428;25.618;2022-11-14T00:44:37;8.72;81.06
74416;SHT31;62850;42.428;25.618;2022-11-14T00:47:03;8.72;80.84
74416;SHT31;62850;42.428;25.618;2022-11-14T00:49:28;8.62;81.04
74416;SHT31;62850;42.428;25.618;2022-11-14T00:51:54;8.51;81.35
74416;SHT31;62850;42.428;25.618;2022-11-14T00:54:19;8.44;81.15
74416;SHT31;62850;42.428;25.618;2022-11-14T00:56:45;8.38;81.23
74416;SHT31;62850;42.428;25.618;2022-11-14T00:59:10;8.32;81.28
74416;SHT31;62850;42.428;25.618;2022-11-14T01:01:36;8.25;81.49
74416;SHT31;62850;42.428;25.618;2022-11-14T01:04:01;8.27;81.53
74416;SHT31;62850;42.428;25.618;2022-11-14T01:06:27;8.22;81.48
74416;SHT31;62850;42.428;25.618;2022-11-14T01:08:52;8.24;81.50
74416;SHT31;62850;42.428;25.618;2022-11-14T01:11:19;8.18;81.66
74416;SHT31;62850;42.428;25.618;2022-11-14T01:13:46;8.21;81.67
74416;SHT31;62850;42.428;25.618;2022-11-14T01:16:11;8.17;81.57
74416;SHT31;62850;42.428;25.618;2022-11-14T01:18:38;8.08;81.83
74416;SHT31;62850;42.428;25.618;2022-11-14T01:21:05;8.04;81.87
74416;SHT31;62850;42.428;25.618;2022-11-14T01:23:32;8.04;81.80
74416;SHT31;62850;42.428;25.618;2022-11-14T01:26:06;8.08;81.65
74416;SHT31;62850;42.428;25.618;2022-11-14T01:28:33;8.10;81.51
74416;SHT31;62850;42.428;25.618;2022-11-14T01:31:11;8.07;81.51
74416;SHT31;62850;42.428;25.618;2022-11-14T01:33:37;8.04;81.64
74416;SHT31;62850;42.428;25.618;2022-11-14T01:36:04;7.93;82.05
74416;SHT31;62850;42.428;25.618;2022-11-14T01:38:30;7.86;82.31
74416;SHT31;62850;42.428;25.618;2022-11-14T01:40:55;7.90;81.77
74416;SHT31;62850;42.428;25.618;2022-11-14T01:43:26;7.86;82.01
74416;SHT31;62850;42.428;25.618;2022-11-14T01:46:09;7.84;81.97
74416;SHT31;62850;42.428;25.618;2022-11-14T01:51:36;7.79;82.15
74416;SHT31;62850;42.428;25.618;2022-11-14T01:54:07;7.83;82.16
74416;SHT31;62850;42.428;25.618;2022-11-14T01:56:41;7.71;82.52
74416;SHT31;62850;42.428;25.618;2022-11-14T01:59:12;7.71;82.88
74416;SHT31;62850;42.428;25.618;2022-11-14T02:01:51;7.60;83.29
74416;SHT31;62850;42.428;25.618;2022-11-14T02:04:20;7.71;83.07
74416;SHT31;62850;42.428;25.618;2022-11-14T02:06:47;7.77;82.49
74416;SHT31;62850;42.428;25.618;2022-11-14T02:09:15;7.79;82.41
74416;SHT31;62850;42.428;25.618;2022-11-14T02:11:43;7.80;82.48
74416;SHT31;62850;42.428;25.618;2022-11-14T02:14:09;7.77;82.67
74416;SHT31;62850;42.428;25.618;2022-11-14T02:16:35;7.79;82.92
74416;SHT31;62850;42.428;25.618;2022-11-14T02:19:02;7.90;82.64
74416;SHT31;62850;42.428;25.618;2022-11-14T02:21:29;7.84;82.84
74416;SHT31;62850;42.428;25.618;2022-11-14T02:23:54;7.84;82.94
74416;SHT31;62850;42.428;25.618;2022-11-14T02:26:21;7.83;82.74
74416;SHT31;62850;42.428;25.618;2022-11-14T02:28:47;7.86;82.76
74416;SHT31;62850;42.428;25.618;2022-11-14T02:31:13;7.81;82.70
74416;SHT31;62850;42.428;25.618;2022-11-14T02:33:39;7.80;82.63
74416;SHT31;62850;42.428;25.618;2022-11-14T02:36:05;7.83;82.63
74416;SHT31;62850;42.428;25.618;2022-11-14T02:38:31;7.83;81.95
74416;SHT31;62850;42.428;25.618;2022-11-14T02:40:59;7.76;82.34
74416;SHT31;62850;42.428;25.618;2022-11-14T02:43:24;7.73;82.51
74416;SHT31;62850;42.428;25.618;2022-11-14T02:45:50;7.74;82.55
74416;SHT31;62850;42.428;25.618;2022-11-14T02:48:16;7.77;82.59
74416;SHT31;62850;42.428;25.618;2022-11-14T02:50:41;7.74;82.53
74416;SHT31;62850;42.428;25.618;2022-11-14T02:53:07;7.73;82.59
74416;SHT31;62850;42.428;25.618;2022-11-14T02:55:32;7.71;82.57
74416;SHT31;62850;42.428;25.618;2022-11-14T02:57:58;7.62;83.27
74416;SHT31;62850;42.428;25.618;2022-11-14T03:00:23;7.66;82.97
74416;SHT31;62850;42.428;25.618;2022-11-14T03:02:51;7.60;83.39
74416;SHT31;62850;42.428;25.618;2022-11-14T03:05:17;7.59;83.48
74416;SHT31;62850;42.428;25.618;2022-11-14T03:07:42;7.65;83.44
74416;SHT31;62850;42.428;25.618;2022-11-14T03:10:08;7.71;83.45
74416;SHT31;62850;42.428;25.618;2022-11-14T03:12:34;7.65;83.42
74416;SHT31;62850;42.428;25.618;2022-11-14T03:14:59;7.69;83.56
74416;SHT31;62850;42.428;25.618;2022-11-14T03:17:25;7.65;83.52
74416;SHT31;62850;42.428;25.618;2022-11-14T03:19:50;7.69;83.50
74416;SHT31;62850;42.428;25.618;2022-11-14T03:22:16;7.62;83.46
74416;SHT31;62850;42.428;25.618;2022-11-14T03:24:41;7.62;83.63
74416;SHT31;62850;42.428;25.618;2022-11-14T03:27:07;7.62;83.56
74416;SHT31;62850;42.428;25.618;2022-11-14T03:29:32;7.66;83.40
74416;SHT31;62850;42.428;25.618;2022-11-14T03:31:58;7.69;83.51
74416;SHT31;62850;42.428;25.618;2022-11-14T03:34:23;7.65;83.40
74416;SHT31;62850;42.428;25.618;2022-11-14T03:36:49;7.58;83.67
74416;SHT31;62850;42.428;25.618;2022-11-14T03:39:14;7.59;83.54
74416;SHT31;62850;42.428;25.618;2022-11-14T03:41:40;7.67;83.42
74416;SHT31;62850;42.428;25.618;2022-11-14T03:44:06;7.63;83.57
74416;SHT31;62850;42.428;25.618;2022-11-14T03:46:31;7.55;83.79
74416;SHT31;62850;42.428;25.618;2022-11-14T03:48:57;7.55;84.01
74416;SHT31;62850;42.428;25.618;2022-11-14T03:51:22;7.60;83.79
74416;SHT31;62850;42.428;25.618;2022-11-14T03:53:48;7.55;83.84
74416;SHT31;62850;42.428;25.618;2022-11-14T03:56:13;7.56;83.96
74416;SHT31;62850;42.428;25.618;2022-11-14T03:58:39;7.58;83.89
74416;SHT31;62850;42.428;25.618;2022-11-14T04:01:04;7.60;83.75
74416;SHT31;62850;42.428;25.618;2022-11-14T04:03:29;7.58;83.68
74416;SHT31;62850;42.428;25.618;2022-11-14T04:05:55;7.62;83.63
74416;SHT31;62850;42.428;25.618;2022-11-14T04:08:20;7.59;83.67
74416;SHT31;62850;42.428;25.618;2022-11-14T04:10:47;7.58;83.51
74416;SHT31;62850;42.428;25.618;2022-11-14T04:13:13;7.60;83.51
74416;SHT31;62850;42.428;25.618;2022-11-14T04:15:38;7.58;83.68
74416;SHT31;62850;42.428;25.618;2022-11-14T04:18:04;7.58;83.65
74416;SHT31;62850;42.428;25.618;2022-11-14T04:20:29;7.63;83.22
74416;SHT31;62850;42.428;25.618;2022-11-14T04:22:55;7.65;83.14
74416;SHT31;62850;42.428;25.618;2022-11-14T04:25:20;7.62;83.37
74416;SHT31;62850;42.428;25.618;2022-11-14T04:27:46;7.66;83.13
74416;SHT31;62850;42.428;25.618;2022-11-14T04:30:11;7.67;83.03
74416;SHT31;62850;42.428;25.618;2022-11-14T04:32:36;7.65;83.03
74416;SHT31;62850;42.428;25.618;2022-11-14T04:35:02;7.55;83.11
74416;SHT31;62850;42.428;25.618;2022-11-14T04:37:28;7.52;83.27
74416;SHT31;62850;42.428;25.618;2022-11-14T04:39:53;7.50;83.48
74416;SHT31;62850;42.428;25.618;2022-11-14T04:42:23;7.56;83.19
74416;SHT31;62850;42.428;25.618;2022-11-14T04:44:49;7.52;82.91
74416;SHT31;62850;42.428;25.618;2022-11-14T04:47:15;7.50;83.16
74416;SHT31;62850;42.428;25.618;2022-11-14T04:49:40;7.43;83.43
74416;SHT31;62850;42.428;25.618;2022-11-14T04:52:06;7.42;83.36
74416;SHT31;62850;42.428;25.618;2022-11-14T04:54:31;7.43;83.27
74416;SHT31;62850;42.428;25.618;2022-11-14T04:56:56;7.52;83.21
74416;SHT31;62850;42.428;25.618;2022-11-14T04:59:22;7.53;83.18
74416;SHT31;62850;42.428;25.618;2022-11-14T05:01:47;7.46;83.38
74416;SHT31;62850;42.428;25.618;2022-11-14T05:04:13;7.55;83.56
74416;SHT31;62850;42.428;25.618;2022-11-14T05:06:38;7.58;83.20
74416;SHT31;62850;42.428;25.618;2022-11-14T05:09:04;7.50;83.50
74416;SHT31;62850;42.428;25.618;2022-11-14T05:11:30;7.49;83.41
74416;SHT31;62850;42.428;25.618;2022-11-14T05:13:55;7.48;83.71
74416;SHT31;62850;42.428;25.618;2022-11-14T05:16:21;7.52;83.38
74416;SHT31;62850;42.428;25.618;2022-11-14T05:18:46;7.56;83.08
74416;SHT31;62850;42.428;25.618;2022-11-14T05:21:13;7.46;82.94
74416;SHT31;62850;42.428;25.618;2022-11-14T05:23:39;7.35;82.47
74416;SHT31;62850;42.428;25.618;2022-11-14T05:26:10;7.25;82.32
74416;SHT31;62850;42.428;25.618;2022-11-14T05:28:35;7.22;82.44
74416;SHT31;62850;42.428;25.618;2022-11-14T05:31:06;7.19;81.88
74416;SHT31;62850;42.428;25.618;2022-11-14T05:33:32;6.98;82.15
74416;SHT31;62850;42.428;25.618;2022-11-14T05:36:06;7.01;81.82
74416;SHT31;62850;42.428;25.618;2022-11-14T05:38:32;7.04;81.19
74416;SHT31;62850;42.428;25.618;2022-11-14T05:40:58;6.91;81.42
74416;SHT31;62850;42.428;25.618;2022-11-14T05:43:24;6.88;81.38
74416;SHT31;62850;42.428;25.618;2022-11-14T05:45:50;6.85;81.56
74416;SHT31;62850;42.428;25.618;2022-11-14T05:48:15;6.79;81.45
74416;SHT31;62850;42.428;25.618;2022-11-14T05:50:41;6.67;81.27
74416;SHT31;62850;42.428;25.618;2022-11-14T05:53:06;6.66;81.34
74416;SHT31;62850;42.428;25.618;2022-11-14T05:55:32;6.67;81.21
74416;SHT31;62850;42.428;25.618;2022-11-14T05:57:58;6.66;80.90
74416;SHT31;62850;42.428;25.618;2022-11-14T06:00:24;6.61;81.46
74416;SHT31;62850;42.428;25.618;2022-11-14T06:02:53;6.69;81.61
74416;SHT31;62850;42.428;25.618;2022-11-14T06:05:20;6.69;80.95
74416;SHT31;62850;42.428;25.618;2022-11-14T06:07:46;6.76;81.04
74416;SHT31;62850;42.428;25.618;2022-11-14T06:10:12;6.74;81.03
74416;SHT31;62850;42.428;25.618;2022-11-14T06:12:38;6.85;80.79
74416;SHT31;62850;42.428;25.618;2022-11-14T06:15:04;6.85;80.84
74416;SHT31;62850;42.428;25.618;2022-11-14T06:17:32;6.91;80.69
74416;SHT31;62850;42.428;25.618;2022-11-14T06:19:58;6.91;80.61
74416;SHT31;62850;42.428;25.618;2022-11-14T06:22:26;6.92;81.28
74416;SHT31;62850;42.428;25.618;2022-11-14T06:24:52;6.95;80.38
74416;SHT31;62850;42.428;25.618;2022-11-14T06:27:17;7.00;80.03
74416;SHT31;62850;42.428;25.618;2022-11-14T06:29:44;7.07;79.54
74416;SHT31;62850;42.428;25.618;2022-11-14T06:32:10;7.04;79.60
74416;SHT31;62850;42.428;25.618;2022-11-14T06:34:35;7.16;79.35
74416;SHT31;62850;42.428;25.618;2022-11-14T06:37:00;7.19;79.47
74416;SHT31;62850;42.428;25.618;2022-11-14T06:39:28;7.18;79.73
74416;SHT31;62850;42.428;25.618;2022-11-14T06:41:54;7.22;79.85
74416;SHT31;62850;42.428;25.618;2022-11-14T06:44:19;7.28;79.49
74416;SHT31;62850;42.428;25.618;2022-11-14T06:46:45;7.35;79.43
74416;SHT31;62850;42.428;25.618;2022-11-14T06:49:10;7.36;79.29
74416;SHT31;62850;42.428;25.618;2022-11-14T06:51:36;7.41;79.12
74416;SHT31;62850;42.428;25.618;2022-11-14T06:54:02;7.48;79.31
74416;SHT31;62850;42.428;25.618;2022-11-14T06:56:28;7.52;79.07
74416;SHT31;62850;42.428;25.618;2022-11-14T06:58:53;7.69;78.53
74416;SHT31;62850;42.428;25.618;2022-11-14T07:01:21;7.70;78.50
74416;SHT31;62850;42.428;25.618;2022-11-14T07:03:47;7.87;78.06
74416;SHT31;62850;42.428;25.618;2022-11-14T07:06:18;7.94;78.00
74416;SHT31;62850;42.428;25.618;2022-11-14T07:08:44;7.97;77.95
74416;SHT31;62850;42.428;25.618;2022-11-14T07:11:18;8.01;78.04
74416;SHT31;62850;42.428;25.618;2022-11-14T07:13:58;8.18;77.38
74416;SHT31;62850;42.428;25.618;2022-11-14T07:16:26;8.25;77.30
74416;SHT31;62850;42.428;25.618;2022-11-14T07:18:54;8.27;77.12
74416;SHT31;62850;42.428;25.618;2022-11-14T07:21:19;8.41;76.83
74416;SHT31;62850;42.428;25.618;2022-11-14T07:23:45;8.52;76.60
74416;SHT31;62850;42.428;25.618;2022-11-14T07:26:11;8.63;76.31
74416;SHT31;62850;42.428;25.618;2022-11-14T07:28:39;8.73;76.14
74416;SHT31;62850;42.428;25.618;2022-11-14T07:31:06;8.86;75.91
74416;SHT31;62850;42.428;25.618;2022-11-14T07:33:32;8.86;75.61
74416;SHT31;62850;42.428;25.618;2022-11-14T07:35:58;8.96;75.33
74416;SHT31;62850;42.428;25.618;2022-11-14T07:38:26;9.10;75.15
74416;SHT31;62850;42.428;25.618;2022-11-14T07:40:56;9.13;74.96
74416;SHT31;62850;42.428;25.618;2022-11-14T07:43:22;9.28;74.64
74416;SHT31;62850;42.428;25.618;2022-11-14T07:45:48;9.41;74.70
74416;SHT31;62850;42.428;25.618;2022-11-14T07:48:14;9.49;74.27
74416;SHT31;62850;42.428;25.618;2022-11-14T07:50:41;9.55;75.23
74416;SHT31;62850;42.428;25.618;2022-11-14T07:53:06;9.67;74.22
74416;SHT31;62850;42.428;25.618;2022-11-14T07:55:34;9.81;74.14
74416;SHT31;62850;42.428;25.618;2022-11-14T07:58:00;9.90;73.39
74416;SHT31;62850;42.428;25.618;2022-11-14T08:00:25;10.02;73.62
74416;SHT31;62850;42.428;25.618;2022-11-14T08:02:51;10.13;73.24
74416;SHT31;62850;42.428;25.618;2022-11-14T08:05:17;10.21;72.38
74416;SHT31;62850;42.428;25.618;2022-11-14T08:07:43;10.33;72.31
74416;SHT31;62850;42.428;25.618;2022-11-14T08:10:09;10.44;71.88
74416;SHT31;62850;42.428;25.618;2022-11-14T08:12:37;10.47;71.73
74416;SHT31;62850;42.428;25.618;2022-11-14T08:15:06;10.58;71.85
74416;SHT31;62850;42.428;25.618;2022-11-14T08:17:32;10.69;72.01
74416;SHT31;62850;42.428;25.618;2022-11-14T08:19:58;10.78;71.92
74416;SHT31;62850;42.428;25.618;2022-11-14T08:22:24;10.82;71.72
74416;SHT31;62850;42.428;25.618;2022-11-14T08:24:49;10.94;71.64
74416;SHT31;62850;42.428;25.618;2022-11-14T08:27:15;10.99;71.32
74416;SHT31;62850;42.428;25.618;2022-11-14T08:29:40;11.08;70.85
74416;SHT31;62850;42.428;25.618;2022-11-14T08:32:06;11.14;70.74
74416;SHT31;62850;42.428;25.618;2022-11-14T08:34:32;11.16;70.40
74416;SHT31;62850;42.428;25.618;2022-11-14T08:36:57;11.22;69.93
74416;SHT31;62850;42.428;25.618;2022-11-14T08:39:23;11.26;70.64
74416;SHT31;62850;42.428;25.618;2022-11-14T08:41:48;11.37;70.64
74416;SHT31;62850;42.428;25.618;2022-11-14T08:44:14;11.46;70.13
74416;SHT31;62850;42.428;25.618;2022-11-14T08:46:39;11.53;70.10
74416;SHT31;62850;42.428;25.618;2022-11-14T08:49:05;11.52;69.82
74416;SHT31;62850;42.428;25.618;2022-11-14T08:51:30;11.57;70.04
74416;SHT31;62850;42.428;25.618;2022-11-14T08:53:56;11.56;70.55
74416;SHT31;62850;42.428;25.618;2022-11-14T08:56:21;11.62;70.54
74416;SHT31;62850;42.428;25.618;2022-11-14T08:58:47;11.71;70.53
74416;SHT31;62850;42.428;25.618;2022-11-14T09:01:12;11.77;70.17
74416;SHT31;62850;42.428;25.618;2022-11-14T09:03:38;11.88;69.84
74416;SHT31;62850;42.428;25.618;2022-11-14T09:06:03;11.95;69.88
74416;SHT31;62850;42.428;25.618;2022-11-14T09:08:29;12.01;69.89
74416;SHT31;62850;42.428;25.618;2022-11-14T09:10:58;12.13;69.70
74416;SHT31;62850;42.428;25.618;2022-11-14T09:13:23;12.15;69.82
74416;SHT31;62850;42.428;25.618;2022-11-14T09:15:49;12.22;69.37
74416;SHT31;62850;42.428;25.618;2022-11-14T09:18:15;12.31;69.22
74416;SHT31;62850;42.428;25.618;2022-11-14T09:20:40;12.45;69.03
74416;SHT31;62850;42.428;25.618;2022-11-14T09:23:06;12.55;69.02
74416;SHT31;62850;42.428;25.618;2022-11-14T09:25:31;12.62;68.92
74416;SHT31;62850;42.428;25.618;2022-11-14T09:27:57;12.75;68.86
74416;SHT31;62850;42.428;25.618;2022-11-14T09:30:23;12.87;68.95
74416;SHT31;62850;42.428;25.618;2022-11-14T09:32:48;12.94;68.72
74416;SHT31;62850;42.428;25.618;2022-11-14T09:35:14;12.99;68.32
74416;SHT31;62850;42.428;25.618;2022-11-14T09:37:40;13.03;67.85
74416;SHT31;62850;42.428;25.618;2022-11-14T09:40:06;13.14;67.72
74416;SHT31;62850;42.428;25.618;2022-11-14T09:46:15;13.14;67.59
74416;SHT31;62850;42.428;25.618;2022-11-14T09:48:43;13.17;67.76
74416;SHT31;62850;42.428;25.618;2022-11-14T09:51:18;13.20;67.69
74416;SHT31;62850;42.428;25.618;2022-11-14T09:54:05;13.23;67.23
74416;SHT31;62850;42.428;25.618;2022-11-14T09:56:31;13.13;67.35
74416;SHT31;62850;42.428;25.618;2022-11-14T09:58:56;13.14;67.50
74416;SHT31;62850;42.428;25.618;2022-11-14T10:01:34;13.11;67.65
74416;SHT31;62850;42.428;25.618;2022-11-14T10:04:26;13.07;67.92
74416;SHT31;62850;42.428;25.618;2022-11-14T10:07:18;13.13;68.22
74416;SHT31;62850;42.428;25.618;2022-11-14T10:09:53;13.13;68.38
74416;SHT31;62850;42.428;25.618;2022-11-14T10:15:45;13.07;68.41
74416;SHT31;62850;42.428;25.618;2022-11-14T10:26:30;13.06;69.13
74416;SHT31;62850;42.428;25.618;2022-11-14T10:31:52;13.07;69.50
74416;SHT31;62850;42.428;25.618;2022-11-14T10:37:17;13.06;69.66
74416;SHT31;62850;42.428;25.618;2022-11-14T10:39:50;13.06;69.65
74416;SHT31;62850;42.428;25.618;2022-11-14T10:42:36;12.99;69.67
74416;SHT31;62850;42.428;25.618;2022-11-14T10:47:57;12.93;70.36
74416;SHT31;62850;42.428;25.618;2022-11-14T10:51:45;13.00;70.29
74416;SHT31;62850;42.428;25.618;2022-11-14T10:54:04;13.03;70.34
74416;SHT31;62850;42.428;25.618;2022-11-14T10:56:31;13.00;70.32
74416;SHT31;62850;42.428;25.618;2022-11-14T10:58:56;13.14;70.33
74416;SHT31;62850;42.428;25.618;2022-11-14T11:06:58;13.28;69.52
74416;SHT31;62850;42.428;25.618;2022-11-14T11:10:03;13.27;69.28
74416;SHT31;62850;42.428;25.618;2022-11-14T11:12:53;13.35;68.96
74416;SHT31;62850;42.428;25.618;2022-11-14T11:15:27;13.41;69.30
74416;SHT31;62850;42.428;25.618;2022-11-14T11:17:59;13.44;69.25
74416;SHT31;62850;42.428;25.618;2022-11-14T11:20:39;13.57;68.94
74416;SHT31;62850;42.428;25.618;2022-11-14T11:25:34;13.78;68.46
74416;SHT31;62850;42.428;25.618;2022-11-14T11:28:18;13.90;67.88
74416;SHT31;62850;42.428;25.618;2022-11-14T11:30:58;14.01;67.10
74416;SHT31;62850;42.428;25.618;2022-11-14T11:33:28;14.12;67.23
74416;SHT31;62850;42.428;25.618;2022-11-14T11:35:56;14.17;66.80
74416;SHT31;62850;42.428;25.618;2022-11-14T11:38:25;14.30;66.92
74416;SHT31;62850;42.428;25.618;2022-11-14T11:40:56;14.38;66.44
74416;SHT31;62850;42.428;25.618;2022-11-14T11:43:39;14.50;65.85
74416;SHT31;62850;42.428;25.618;2022-11-14T11:46:20;14.57;65.32
74416;SHT31;62850;42.428;25.618;2022-11-14T11:48:51;14.60;65.21
74416;SHT31;62850;42.428;25.618;2022-11-14T11:51:23;14.64;65.00
74416;SHT31;62850;42.428;25.618;2022-11-14T11:53:58;14.77;64.78
74416;SHT31;62850;42.428;25.618;2022-11-14T11:56:30;14.87;64.21
74416;SHT31;62850;42.428;25.618;2022-11-14T11:59:16;14.96;64.47
74416;SHT31;62850;42.428;25.618;2022-11-14T12:01:45;15.02;64.22
74416;SHT31;62850;42.428;25.618;2022-11-14T12:04:10;15.05;63.58
74416;SHT31;62850;42.428;25.618;2022-11-14T12:07:10;15.09;63.16
74416;SHT31;62850;42.428;25.618;2022-11-14T12:09:38;15.08;63.35
74416;SHT31;62850;42.428;25.618;2022-11-14T12:12:12;15.09;63.50
74416;SHT31;62850;42.428;25.618;2022-11-14T12:23:02;15.11;63.61
74416;SHT31;62850;42.428;25.618;2022-11-14T12:26:10;14.98;64.05
74416;SHT31;62850;42.428;25.618;2022-11-14T12:31:28;14.98;64.52
74416;SHT31;62850;42.428;25.618;2022-11-14T12:34:02;15.02;64.16
74416;SHT31;62850;42.428;25.618;2022-11-14T12:36:31;15.03;63.93
74416;SHT31;62850;42.428;25.618;2022-11-14T12:38:58;15.09;64.10
74416;SHT31;62850;42.428;25.618;2022-11-14T12:43:51;15.09;63.73
74416;SHT31;62850;42.428;25.618;2022-11-14T12:46:17;15.02;63.88
74416;SHT31;62850;42.428;25.618;2022-11-14T12:48:44;15.02;64.18
74416;SHT31;62850;42.428;25.618;2022-11-14T12:53:53;14.91;64.05
74416;SHT31;62850;42.428;25.618;2022-11-14T13:01:42;15.03;62.83
74416;SHT31;62850;42.428;25.618;2022-11-14T13:06:46;15.02;62.95
74416;SHT31;62850;42.428;25.618;2022-11-14T13:09:42;15.02;62.45
74416;SHT31;62850;42.428;25.618;2022-11-14T13:12:25;14.99;62.43
74416;SHT31;62850;42.428;25.618;2022-11-14T13:18:22;14.96;62.31
74416;SHT31;62850;42.428;25.618;2022-11-14T13:21:26;14.92;62.27
74416;SHT31;62850;42.428;25.618;2022-11-14T13:24:24;14.87;61.84
74416;SHT31;62850;42.428;25.618;2022-11-14T13:26:53;14.85;61.95
74416;SHT31;62850;42.428;25.618;2022-11-14T13:32:03;14.75;62.50
74416;SHT31;62850;42.428;25.618;2022-11-14T13:37:38;14.77;62.98
74416;SHT31;62850;42.428;25.618;2022-11-14T13:40:13;14.77;62.70
74416;SHT31;62850;42.428;25.618;2022-11-14T13:45:35;14.77;62.60
74416;SHT31;62850;42.428;25.618;2022-11-14T13:50:34;14.81;62.07
74416;SHT31;62850;42.428;25.618;2022-11-14T13:53:02;14.85;62.05
74416;SHT31;62850;42.428;25.618;2022-11-14T13:56:00;14.85;62.33
74416;SHT31;62850;42.428;25.618;2022-11-14T14:01:45;14.87;62.55
74416;SHT31;62850;42.428;25.618;2022-11-14T14:20:30;14.48;64.92
74416;SHT31;62850;42.428;25.618;2022-11-14T14:28:28;14.34;65.01
74416;SHT31;62850;42.428;25.618;2022-11-14T14:31:08;14.33;65.29
74416;SHT31;62850;42.428;25.618;2022-11-14T14:33:44;14.36;65.68
74416;SHT31;62850;42.428;25.618;2022-11-14T14:38:48;14.29;65.48
74416;SHT31;62850;42.428;25.618;2022-11-14T14:41:17;14.17;65.27
74416;SHT31;62850;42.428;25.618;2022-11-14T14:43:49;14.14;65.62
74416;SHT31;62850;42.428;25.618;2022-11-14T14:46:23;14.13;65.29
74416;SHT31;62850;42.428;25.618;2022-11-14T14:48:49;14.08;65.23
74416;SHT31;62850;42.428;25.618;2022-11-14T14:51:28;14.01;65.29
74416;SHT31;62850;42.428;25.618;2022-11-14T14:53:54;13.95;65.37
74416;SHT31;62850;42.428;25.618;2022-11-14T14:56:22;13.92;65.54
74416;SHT31;62850;42.428;25.618;2022-11-14T14:58:49;13.86;65.81
74416;SHT31;62850;42.428;25.618;2022-11-14T15:01:16;13.83;65.95
74416;SHT31;62850;42.428;25.618;2022-11-14T15:03:51;13.76;66.23
74416;SHT31;62850;42.428;25.618;2022-11-14T15:06:37;13.69;66.38
74416;SHT31;62850;42.428;25.618;2022-11-14T15:11:32;13.61;66.75
74416;SHT31;62850;42.428;25.618;2022-11-14T15:14:01;13.57;67.15
74416;SHT31;62850;42.428;25.618;2022-11-14T15:16:28;13.51;67.37
74416;SHT31;62850;42.428;25.618;2022-11-14T15:18:55;13.45;67.52
74416;SHT31;62850;42.428;25.618;2022-11-14T15:21:28;13.35;67.50
74416;SHT31;62850;42.428;25.618;2022-11-14T15:24:09;13.24;67.81
74416;SHT31;62850;42.428;25.618;2022-11-14T15:26:36;13.17;68.39
74416;SHT31;62850;42.428;25.618;2022-11-14T15:29:22;13.03;68.72
74416;SHT31;62850;42.428;25.618;2022-11-14T15:34:42;12.86;69.22
74416;SHT31;62850;42.428;25.618;2022-11-14T15:39:41;12.65;70.02
74416;SHT31;62850;42.428;25.618;2022-11-14T15:42:18;12.52;70.22
74416;SHT31;62850;42.428;25.618;2022-11-14T15:44:44;12.44;70.64
74416;SHT31;62850;42.428;25.618;2022-11-14T15:47:24;12.36;70.68
74416;SHT31;62850;42.428;25.618;2022-11-14T15:50:03;12.32;71.08
74416;SHT31;62850;42.428;25.618;2022-11-14T15:52:37;12.22;71.50
74416;SHT31;62850;42.428;25.618;2022-11-14T15:55:12;12.15;71.56
74416;SHT31;62850;42.428;25.618;2022-11-14T15:57:38;12.04;71.86
74416;SHT31;62850;42.428;25.618;2022-11-14T16:00:04;11.93;72.08
74416;SHT31;62850;42.428;25.618;2022-11-14T16:02:32;11.78;72.59
74416;SHT31;62850;42.428;25.618;2022-11-14T16:04:59;11.63;73.38
74416;SHT31;62850;42.428;25.618;2022-11-14T16:07:25;11.56;73.25
74416;SHT31;62850;42.428;25.618;2022-11-14T16:09:52;11.52;73.25
74416;SHT31;62850;42.428;25.618;2022-11-14T16:12:18;11.40;73.52
74416;SHT31;62850;42.428;25.618;2022-11-14T16:14:43;11.42;74.02
74416;SHT31;62850;42.428;25.618;2022-11-14T16:17:16;11.39;73.95
74416;SHT31;62850;42.428;25.618;2022-11-14T16:19:42;11.40;74.05
74416;SHT31;62850;42.428;25.618;2022-11-14T16:22:14;11.36;74.30
74416;SHT31;62850;42.428;25.618;2022-11-14T16:24:41;11.30;74.48
74416;SHT31;62850;42.428;25.618;2022-11-14T16:27:06;11.19;74.89
74416;SHT31;62850;42.428;25.618;2022-11-14T16:29:32;11.26;74.38
74416;SHT31;62850;42.428;25.618;2022-11-14T16:31:57;11.22;74.58
74416;SHT31;62850;42.428;25.618;2022-11-14T16:34:24;11.12;75.09
74416;SHT31;62850;42.428;25.618;2022-11-14T16:37:00;10.99;75.54
74416;SHT31;62850;42.428;25.618;2022-11-14T16:39:26;10.95;75.65
74416;SHT31;62850;42.428;25.618;2022-11-14T16:41:52;10.94;75.90
74416;SHT31;62850;42.428;25.618;2022-11-14T16:44:17;10.94;76.01
74416;SHT31;62850;42.428;25.618;2022-11-14T16:46:44;10.84;76.32
74416;SHT31;62850;42.428;25.618;2022-11-14T16:49:15;10.88;75.93
74416;SHT31;62850;42.428;25.618;2022-11-14T16:51:42;10.84;76.33
74416;SHT31;62850;42.428;25.618;2022-11-14T16:54:11;10.75;76.69
74416;SHT31;62850;42.428;25.618;2022-11-14T16:56:37;10.68;77.08
74416;SHT31;62850;42.428;25.618;2022-11-14T16:59:03;10.64;76.79
74416;SHT31;62850;42.428;25.618;2022-11-14T17:01:28;10.65;76.90
74416;SHT31;62850;42.428;25.618;2022-11-14T17:03:56;10.71;76.60
74416;SHT31;62850;42.428;25.618;2022-11-14T17:06:24;10.69;76.50
74416;SHT31;62850;42.428;25.618;2022-11-14T17:08:56;10.78;76.26
74416;SHT31;62850;42.428;25.618;2022-11-14T17:11:22;10.82;76.31
74416;SHT31;62850;42.428;25.618;2022-11-14T17:13:48;10.84;76.22
74416;SHT31;62850;42.428;25.618;2022-11-14T17:16:14;10.85;76.32
74416;SHT31;62850;42.428;25.618;2022-11-14T17:18:40;10.89;76.32
74416;SHT31;62850;42.428;25.618;2022-11-14T17:21:07;10.92;76.03